createdAt,value
2023-04-29T00:02:34.868Z,7.40
2023-04-29T00:05:21.043Z,6.40
2023-04-29T00:08:06.563Z,6.65
2023-04-29T00:10:52.185Z,6.43
2023-04-29T00:13:40.833Z,5.45
2023-04-29T00:16:26.731Z,5.55
2023-04-29T00:19:12.908Z,6.13
2023-04-29T00:21:59.413Z,5.70
2023-04-29T00:27:30.486Z,4.88
2023-04-29T00:30:16.132Z,3.87
2023-04-29T00:33:01.584Z,4.72
2023-04-29T00:35:47.124Z,3.97
2023-04-29T00:38:33.043Z,4.10
2023-04-29T00:41:18.432Z,3.60
2023-04-29T00:44:04.059Z,3.80
2023-04-29T00:46:49.545Z,5.00
2023-04-29T00:49:35.322Z,4.90
2023-04-29T00:52:21.923Z,5.35
2023-04-29T00:57:54.348Z,6.50
2023-04-29T01:00:41.568Z,6.07
2023-04-29T01:03:28.824Z,6.68
2023-04-29T01:06:41.360Z,6.68
2023-04-29T01:09:49.308Z,7.78
2023-04-29T01:16:01.940Z,8.57
2023-04-29T01:18:54.389Z,7.85
2023-04-29T01:21:49.540Z,8.10
2023-04-29T01:24:35.264Z,8.90
2023-04-29T01:27:48.509Z,8.80
2023-04-29T01:30:52.827Z,8.85
2023-04-29T01:33:57.192Z,8.57
2023-04-29T01:37:12.195Z,10.07
2023-04-29T01:40:12.689Z,9.73
2023-04-29T01:43:03.402Z,9.93
2023-04-29T01:45:50.119Z,10.63
2023-04-29T01:48:37.324Z,12.05
2023-04-29T01:51:22.801Z,11.02
2023-04-29T01:54:08.194Z,10.15
2023-04-29T01:56:54.000Z,9.82
2023-04-29T01:59:39.468Z,9.48
2023-04-29T02:02:25.522Z,10.32
2023-04-29T02:05:11.211Z,9.48
2023-04-29T02:07:56.640Z,10.30
2023-04-29T02:10:42.197Z,6.77
2023-04-29T02:13:27.871Z,9.10
2023-04-29T02:16:15.312Z,10.10
2023-04-29T02:19:00.962Z,9.90
2023-04-29T02:21:46.877Z,9.90
2023-04-29T02:24:32.690Z,9.90
2023-04-29T02:27:18.240Z,10.07
2023-04-29T02:30:04.880Z,10.27
2023-04-29T02:32:51.183Z,10.27
2023-04-29T02:35:37.127Z,11.13
2023-04-29T02:38:22.918Z,10.27
2023-04-29T02:41:08.268Z,11.30
2023-04-29T02:43:53.717Z,11.77
2023-04-29T02:46:40.801Z,11.45
2023-04-29T02:49:26.650Z,10.98
2023-04-29T02:52:12.784Z,11.13
2023-04-29T02:54:59.505Z,10.15
2023-04-29T02:57:45.235Z,10.38
2023-04-29T03:00:30.850Z,10.02
2023-04-29T03:03:17.317Z,9.55
2023-04-29T03:06:03.403Z,9.45
2023-04-29T03:08:49.160Z,10.07
2023-04-29T03:11:34.452Z,8.88
2023-04-29T03:14:20.010Z,9.00
2023-04-29T03:17:05.662Z,9.45
2023-04-29T03:19:53.261Z,9.18
2023-04-29T03:22:39.200Z,8.95
2023-04-29T03:25:24.517Z,8.80
2023-04-29T03:28:10.818Z,9.60
2023-04-29T03:30:57.275Z,9.95
2023-04-29T03:33:43.192Z,8.80
2023-04-29T03:36:29.035Z,9.93
2023-04-29T03:39:14.481Z,9.15
2023-04-29T03:41:59.996Z,8.55
2023-04-29T03:44:45.714Z,10.25
2023-04-29T03:47:31.163Z,10.30
2023-04-29T03:50:16.683Z,10.00
2023-04-29T03:53:02.385Z,9.60
2023-04-29T03:55:48.522Z,8.70
2023-04-29T03:58:34.019Z,9.82
2023-04-29T04:01:19.603Z,9.27
2023-04-29T04:04:05.075Z,8.13
2023-04-29T04:06:51.895Z,11.63
2023-04-29T04:09:38.296Z,12.02
2023-04-29T04:12:23.636Z,13.50
2023-04-29T04:15:09.121Z,13.57
2023-04-29T04:17:54.547Z,14.83
2023-04-29T04:20:39.983Z,13.90
2023-04-29T04:23:25.341Z,14.50
2023-04-29T04:26:10.981Z,15.07
2023-04-29T04:28:56.812Z,13.48
2023-04-29T04:31:43.414Z,11.43
2023-04-29T04:34:30.280Z,14.85
2023-04-29T04:37:16.176Z,14.18
2023-04-29T04:40:02.059Z,14.48
2023-04-29T04:42:47.342Z,11.48
2023-04-29T04:45:32.901Z,14.48
2023-04-29T04:48:18.655Z,14.95
2023-04-29T04:51:13.931Z,15.00
2023-04-29T04:53:59.550Z,14.48
2023-04-29T04:56:45.292Z,15.32
2023-04-29T04:59:30.960Z,14.13
2023-04-29T05:02:16.605Z,14.25
2023-04-29T05:05:02.206Z,13.63
2023-04-29T05:07:47.698Z,14.98
2023-04-29T05:10:36.670Z,14.60
2023-04-29T05:13:22.330Z,14.32
2023-04-29T05:16:08.065Z,13.90
2023-04-29T05:18:53.318Z,14.05
2023-04-29T05:21:38.890Z,14.73
2023-04-29T05:24:24.150Z,13.77
2023-04-29T05:27:09.917Z,16.10
2023-04-29T05:29:55.626Z,14.82
2023-04-29T05:32:40.831Z,15.07
2023-04-29T05:35:26.479Z,15.77
2023-04-29T05:38:12.198Z,15.32
2023-04-29T05:40:58.369Z,14.93
2023-04-29T05:43:43.831Z,14.77
2023-04-29T05:46:29.314Z,12.97
2023-04-29T05:49:15.817Z,14.87
2023-04-29T05:52:06.276Z,14.25
2023-04-29T05:54:51.688Z,15.27
2023-04-29T05:57:37.353Z,14.35
2023-04-29T06:00:22.669Z,14.13
2023-04-29T06:03:08.274Z,13.07
2023-04-29T06:05:54.888Z,12.32
2023-04-29T06:08:40.848Z,11.63
2023-04-29T06:11:26.713Z,12.00
2023-04-29T06:14:12.423Z,11.98
2023-04-29T06:16:58.005Z,11.57
2023-04-29T06:19:43.309Z,11.75
2023-04-29T06:22:28.677Z,11.90
2023-04-29T06:25:14.190Z,11.15
2023-04-29T06:27:59.671Z,11.70
2023-04-29T06:30:46.417Z,11.10
2023-04-29T06:36:20.354Z,10.70
2023-04-29T06:39:05.890Z,8.65
2023-04-29T06:41:52.210Z,10.20
2023-04-29T06:44:37.814Z,9.35
2023-04-29T06:47:23.934Z,9.57
2023-04-29T06:50:10.394Z,9.25
2023-04-29T06:52:55.689Z,9.80
2023-04-29T06:55:43.505Z,7.93
2023-04-29T06:58:29.501Z,7.57
2023-04-29T07:01:15.212Z,7.53
2023-04-29T07:04:00.865Z,7.17
2023-04-29T07:06:47.017Z,5.07
2023-04-29T07:09:32.749Z,6.05
2023-04-29T07:12:19.694Z,5.97
2023-04-29T07:15:05.676Z,6.35
2023-04-29T07:17:51.195Z,5.68
2023-04-29T07:20:39.969Z,5.10
2023-04-29T07:23:25.743Z,5.55
2023-04-29T07:26:13.656Z,4.70
2023-04-29T07:28:58.986Z,5.53
2023-04-29T07:31:44.656Z,4.40
2023-04-29T07:36:58.710Z,4.47
2023-04-29T07:39:44.435Z,4.27
2023-04-29T07:42:29.989Z,3.58
2023-04-29T07:45:15.589Z,3.73
2023-04-29T07:48:01.501Z,3.55
2023-04-29T07:50:46.911Z,4.03
2023-04-29T07:53:32.500Z,3.55
2023-04-29T07:56:18.920Z,3.40
2023-04-29T07:59:04.332Z,4.05
2023-04-29T08:01:49.804Z,3.73
2023-04-29T08:04:39.663Z,3.77
2023-04-29T08:07:25.314Z,4.25
2023-04-29T08:10:10.804Z,4.03
2023-04-29T08:12:56.169Z,3.63
2023-04-29T08:15:41.521Z,4.35
2023-04-29T08:18:26.937Z,3.47
2023-04-29T08:21:12.266Z,3.38
2023-04-29T08:23:57.989Z,3.83
2023-04-29T08:26:43.306Z,3.23
2023-04-29T08:29:32.700Z,4.40
2023-04-29T08:32:18.039Z,3.95
2023-04-29T08:35:03.449Z,3.40
2023-04-29T08:37:48.746Z,2.67
2023-04-29T08:40:35.722Z,3.97
2023-04-29T08:43:22.130Z,3.33
2023-04-29T08:46:08.137Z,2.85
2023-04-29T08:51:39.951Z,2.85
2023-04-29T08:54:25.636Z,2.67
2023-04-29T08:57:12.107Z,2.47
2023-04-29T09:00:00.141Z,2.50
2023-04-29T09:02:50.899Z,3.00
2023-04-29T09:05:36.516Z,2.78
2023-04-29T09:08:24.221Z,2.50
2023-04-29T09:11:11.691Z,2.83
2023-04-29T09:14:01.568Z,2.10
2023-04-29T09:16:47.703Z,2.33
2023-04-29T09:19:35.100Z,2.65
2023-04-29T09:22:20.914Z,2.38
2023-04-29T09:25:12.842Z,2.80
2023-04-29T09:27:58.574Z,2.60
2023-04-29T09:30:47.282Z,2.58
2023-04-29T09:33:48.921Z,2.70
2023-04-29T09:36:45.437Z,2.28
2023-04-29T09:39:39.547Z,2.53
2023-04-29T09:42:24.853Z,2.67
2023-04-29T09:45:11.897Z,2.35
2023-04-29T09:48:08.506Z,2.80
2023-04-29T09:51:02.048Z,2.58
2023-04-29T09:53:47.567Z,2.78
2023-04-29T09:56:50.042Z,2.80
2023-04-29T09:59:38.224Z,2.80
2023-04-29T10:02:25.445Z,2.92
2023-04-29T10:05:12.010Z,2.80
2023-04-29T10:07:58.997Z,2.80
2023-04-29T10:10:46.337Z,2.22
2023-04-29T10:13:35.477Z,2.40
2023-04-29T10:16:30.093Z,2.55
2023-04-29T10:19:24.802Z,2.22
2023-04-29T10:22:16.953Z,2.35
2023-04-29T10:25:06.086Z,2.50
2023-04-29T10:27:53.654Z,3.13
2023-04-29T10:30:39.966Z,2.78
2023-04-29T10:33:27.857Z,2.70
2023-04-29T10:36:14.997Z,1.90
2023-04-29T10:39:05.911Z,2.55
2023-04-29T10:41:51.806Z,2.38
2023-04-29T10:45:16.112Z,2.60
2023-04-29T10:48:10.848Z,3.10
2023-04-29T10:50:56.095Z,3.53
